sensor_id;sensor_type;location;lat;lon;timestamp;P1;durP1;ratioP1;P2;durP2;ratioP2
7941;SDS011;4016;50.758;7.150;2024-03-02T00:01:10;3.60;;;2.20;;
7941;SDS011;4016;50.758;7.150;2024-03-02T00:06:10;2.67;;;2.43;;
7941;SDS011;4016;50.758;7.150;2024-03-02T00:11:11;2.20;;;2.00;;
7941;SDS011;4016;50.758;7.150;2024-03-02T00:16:14;2.97;;;2.10;;
7941;SDS011;4016;50.758;7.150;2024-03-02T00:21:16;2.13;;;2.00;;
7941;SDS011;4016;50.758;7.150;2024-03-02T00:26:20;1.83;;;1.73;;
7941;SDS011;4016;50.758;7.150;2024-03-02T00:31:20;2.83;;;2.13;;
7941;SDS011;4016;50.758;7.150;2024-03-02T00:36:22;4.90;;;2.77;;
7941;SDS011;4016;50.758;7.150;2024-03-02T00:46:28;2.27;;;2.07;;
7941;SDS011;4016;50.758;7.150;2024-03-02T00:51:31;2.47;;;2.10;;
7941;SDS011;4016;50.758;7.150;2024-03-02T00:56:33;2.73;;;2.53;;
7941;SDS011;4016;50.758;7.150;2024-03-02T01:01:34;2.60;;;2.40;;
7941;SDS011;4016;50.758;7.150;2024-03-02T01:06:35;2.97;;;2.70;;
7941;SDS011;4016;50.758;7.150;2024-03-02T01:11:35;3.20;;;2.40;;
7941;SDS011;4016;50.758;7.150;2024-03-02T01:16:36;3.10;;;2.80;;
7941;SDS011;4016;50.758;7.150;2024-03-02T01:21:36;2.70;;;2.50;;
7941;SDS011;4016;50.758;7.150;2024-03-02T01:26:36;2.83;;;2.40;;
7941;SDS011;4016;50.758;7.150;2024-03-02T01:31:37;2.40;;;2.20;;
7941;SDS011;4016;50.758;7.150;2024-03-02T01:36:37;3.00;;;2.60;;
7941;SDS011;4016;50.758;7.150;2024-03-02T01:41:37;3.37;;;2.70;;
7941;SDS011;4016;50.758;7.150;2024-03-02T01:46:38;2.50;;;2.30;;
7941;SDS011;4016;50.758;7.150;2024-03-02T01:51:38;3.30;;;2.20;;
7941;SDS011;4016;50.758;7.150;2024-03-02T01:56:39;2.40;;;2.20;;
7941;SDS011;4016;50.758;7.150;2024-03-02T02:01:39;2.23;;;2.10;;
7941;SDS011;4016;50.758;7.150;2024-03-02T02:06:40;1.90;;;1.80;;
7941;SDS011;4016;50.758;7.150;2024-03-02T02:11:40;2.10;;;1.83;;
7941;SDS011;4016;50.758;7.150;2024-03-02T02:16:40;2.20;;;2.10;;
7941;SDS011;4016;50.758;7.150;2024-03-02T02:21:44;3.13;;;2.37;;
7941;SDS011;4016;50.758;7.150;2024-03-02T02:26:44;2.23;;;2.03;;
7941;SDS011;4016;50.758;7.150;2024-03-02T02:31:44;2.23;;;2.10;;
7941;SDS011;4016;50.758;7.150;2024-03-02T02:36:45;1.60;;;1.50;;
7941;SDS011;4016;50.758;7.150;2024-03-02T02:41:45;2.60;;;2.10;;
7941;SDS011;4016;50.758;7.150;2024-03-02T02:46:45;3.10;;;2.40;;
7941;SDS011;4016;50.758;7.150;2024-03-02T02:51:46;1.77;;;1.67;;
7941;SDS011;4016;50.758;7.150;2024-03-02T02:56:46;3.43;;;1.93;;
7941;SDS011;4016;50.758;7.150;2024-03-02T03:01:46;2.43;;;2.23;;
7941;SDS011;4016;50.758;7.150;2024-03-02T03:06:47;2.50;;;2.30;;
7941;SDS011;4016;50.758;7.150;2024-03-02T03:11:47;2.80;;;2.40;;
7941;SDS011;4016;50.758;7.150;2024-03-02T03:16:47;3.07;;;2.70;;
7941;SDS011;4016;50.758;7.150;2024-03-02T03:21:48;7.33;;;5.70;;
7941;SDS011;4016;50.758;7.150;2024-03-02T03:26:48;3.37;;;2.67;;
7941;SDS011;4016;50.758;7.150;2024-03-02T03:31:49;4.97;;;2.67;;
7941;SDS011;4016;50.758;7.150;2024-03-02T03:36:49;2.77;;;2.47;;
7941;SDS011;4016;50.758;7.150;2024-03-02T03:41:49;3.73;;;2.70;;
7941;SDS011;4016;50.758;7.150;2024-03-02T03:46:50;3.00;;;2.70;;
7941;SDS011;4016;50.758;7.150;2024-03-02T03:51:50;3.00;;;2.67;;
7941;SDS011;4016;50.758;7.150;2024-03-02T03:56:51;2.77;;;2.50;;
7941;SDS011;4016;50.758;7.150;2024-03-02T04:01:51;2.70;;;2.33;;
7941;SDS011;4016;50.758;7.150;2024-03-02T04:06:51;3.93;;;2.43;;
7941;SDS011;4016;50.758;7.150;2024-03-02T04:11:52;2.80;;;2.50;;
7941;SDS011;4016;50.758;7.150;2024-03-02T04:16:52;3.90;;;2.33;;
7941;SDS011;4016;50.758;7.150;2024-03-02T04:21:53;2.50;;;2.30;;
7941;SDS011;4016;50.758;7.150;2024-03-02T04:26:53;2.60;;;2.40;;
7941;SDS011;4016;50.758;7.150;2024-03-02T04:31:53;2.73;;;2.50;;
7941;SDS011;4016;50.758;7.150;2024-03-02T04:36:54;2.80;;;2.30;;
7941;SDS011;4016;50.758;7.150;2024-03-02T04:41:54;3.07;;;2.63;;
7941;SDS011;4016;50.758;7.150;2024-03-02T04:46:54;3.47;;;2.87;;
7941;SDS011;4016;50.758;7.150;2024-03-02T04:51:55;2.90;;;2.67;;
7941;SDS011;4016;50.758;7.150;2024-03-02T04:56:56;3.93;;;2.80;;
7941;SDS011;4016;50.758;7.150;2024-03-02T05:01:57;2.60;;;2.40;;
7941;SDS011;4016;50.758;7.150;2024-03-02T05:06:58;3.67;;;2.70;;
7941;SDS011;4016;50.758;7.150;2024-03-02T05:11:58;2.70;;;2.50;;
7941;SDS011;4016;50.758;7.150;2024-03-02T05:17:17;2.83;;;2.63;;
7941;SDS011;4016;50.758;7.150;2024-03-02T05:22:17;4.10;;;3.00;;
7941;SDS011;4016;50.758;7.150;2024-03-02T05:27:18;4.47;;;3.03;;
7941;SDS011;4016;50.758;7.150;2024-03-02T05:32:18;2.60;;;2.40;;
7941;SDS011;4016;50.758;7.150;2024-03-02T05:37:19;4.10;;;2.87;;
7941;SDS011;4016;50.758;7.150;2024-03-02T05:42:19;7.70;;;2.87;;
7941;SDS011;4016;50.758;7.150;2024-03-02T05:47:20;2.57;;;2.37;;
7941;SDS011;4016;50.758;7.150;2024-03-02T05:52:20;3.00;;;2.70;;
7941;SDS011;4016;50.758;7.150;2024-03-02T05:57:21;2.70;;;2.50;;
7941;SDS011;4016;50.758;7.150;2024-03-02T06:02:49;3.83;;;3.07;;
7941;SDS011;4016;50.758;7.150;2024-03-02T06:07:49;3.67;;;2.90;;
7941;SDS011;4016;50.758;7.150;2024-03-02T06:12:50;3.53;;;2.83;;
7941;SDS011;4016;50.758;7.150;2024-03-02T06:17:50;3.37;;;3.07;;
7941;SDS011;4016;50.758;7.150;2024-03-02T06:22:51;3.23;;;2.97;;
7941;SDS011;4016;50.758;7.150;2024-03-02T06:27:51;3.47;;;2.80;;
7941;SDS011;4016;50.758;7.150;2024-03-02T06:32:51;4.10;;;2.83;;
7941;SDS011;4016;50.758;7.150;2024-03-02T06:37:52;3.10;;;2.80;;
7941;SDS011;4016;50.758;7.150;2024-03-02T06:42:52;3.27;;;2.60;;
7941;SDS011;4016;50.758;7.150;2024-03-02T06:47:52;4.20;;;2.50;;
7941;SDS011;4016;50.758;7.150;2024-03-02T06:52:53;3.23;;;2.90;;
7941;SDS011;4016;50.758;7.150;2024-03-02T06:57:53;8.00;;;3.87;;
7941;SDS011;4016;50.758;7.150;2024-03-02T07:02:54;4.80;;;3.90;;
7941;SDS011;4016;50.758;7.150;2024-03-02T07:07:54;4.53;;;4.10;;
7941;SDS011;4016;50.758;7.150;2024-03-02T07:12:54;5.10;;;4.20;;
7941;SDS011;4016;50.758;7.150;2024-03-02T07:17:55;4.17;;;3.77;;
7941;SDS011;4016;50.758;7.150;2024-03-02T07:22:55;4.10;;;3.60;;
7941;SDS011;4016;50.758;7.150;2024-03-02T07:27:56;4.93;;;4.10;;
7941;SDS011;4016;50.758;7.150;2024-03-02T07:32:56;4.60;;;3.97;;
7941;SDS011;4016;50.758;7.150;2024-03-02T07:37:56;4.53;;;3.10;;
7941;SDS011;4016;50.758;7.150;2024-03-02T07:42:57;3.03;;;2.73;;
7941;SDS011;4016;50.758;7.150;2024-03-02T07:47:57;3.67;;;3.00;;
7941;SDS011;4016;50.758;7.150;2024-03-02T07:52:58;4.13;;;3.00;;
7941;SDS011;4016;50.758;7.150;2024-03-02T07:57:58;4.53;;;2.97;;
7941;SDS011;4016;50.758;7.150;2024-03-02T08:03:00;4.00;;;2.67;;
7941;SDS011;4016;50.758;7.150;2024-03-02T08:08:00;5.30;;;2.80;;
7941;SDS011;4016;50.758;7.150;2024-03-02T08:13:01;3.17;;;2.47;;
7941;SDS011;4016;50.758;7.150;2024-03-02T08:18:01;2.80;;;2.50;;
7941;SDS011;4016;50.758;7.150;2024-03-02T08:23:02;2.50;;;2.30;;
7941;SDS011;4016;50.758;7.150;2024-03-02T08:28:02;4.80;;;2.30;;
7941;SDS011;4016;50.758;7.150;2024-03-02T08:33:03;4.60;;;2.40;;
7941;SDS011;4016;50.758;7.150;2024-03-02T08:38:04;2.60;;;2.40;;
7941;SDS011;4016;50.758;7.150;2024-03-02T08:43:04;3.10;;;2.80;;
7941;SDS011;4016;50.758;7.150;2024-03-02T08:48:06;2.87;;;2.67;;
7941;SDS011;4016;50.758;7.150;2024-03-02T08:53:08;2.90;;;2.63;;
7941;SDS011;4016;50.758;7.150;2024-03-02T08:58:08;3.83;;;2.77;;
7941;SDS011;4016;50.758;7.150;2024-03-02T09:03:09;2.87;;;2.67;;
7941;SDS011;4016;50.758;7.150;2024-03-02T09:08:11;3.07;;;2.67;;
7941;SDS011;4016;50.758;7.150;2024-03-02T09:13:11;2.57;;;2.30;;
7941;SDS011;4016;50.758;7.150;2024-03-02T09:18:11;2.60;;;2.40;;
7941;SDS011;4016;50.758;7.150;2024-03-02T09:23:12;4.33;;;2.80;;
7941;SDS011;4016;50.758;7.150;2024-03-02T09:28:12;3.53;;;2.60;;
7941;SDS011;4016;50.758;7.150;2024-03-02T09:33:15;5.13;;;2.60;;
7941;SDS011;4016;50.758;7.150;2024-03-02T09:38:15;3.20;;;2.40;;
7941;SDS011;4016;50.758;7.150;2024-03-02T09:43:16;5.37;;;2.50;;
7941;SDS011;4016;50.758;7.150;2024-03-02T09:48:16;3.47;;;2.80;;
7941;SDS011;4016;50.758;7.150;2024-03-02T09:53:18;4.10;;;2.70;;
7941;SDS011;4016;50.758;7.150;2024-03-02T09:58:19;2.50;;;2.30;;
7941;SDS011;4016;50.758;7.150;2024-03-02T10:03:20;2.83;;;2.50;;
7941;SDS011;4016;50.758;7.150;2024-03-02T10:08:22;2.50;;;2.30;;
7941;SDS011;4016;50.758;7.150;2024-03-02T10:13:22;3.77;;;2.80;;
7941;SDS011;4016;50.758;7.150;2024-03-02T10:18:26;2.50;;;2.30;;
7941;SDS011;4016;50.758;7.150;2024-03-02T10:23:28;3.93;;;3.30;;
7941;SDS011;4016;50.758;7.150;2024-03-02T10:28:28;3.00;;;2.80;;
7941;SDS011;4016;50.758;7.150;2024-03-02T10:33:29;2.60;;;2.30;;
7941;SDS011;4016;50.758;7.150;2024-03-02T10:38:30;4.03;;;3.30;;
7941;SDS011;4016;50.758;7.150;2024-03-02T10:43:30;3.10;;;2.60;;
7941;SDS011;4016;50.758;7.150;2024-03-02T10:48:31;2.93;;;2.63;;
7941;SDS011;4016;50.758;7.150;2024-03-02T10:53:32;3.67;;;2.80;;
7941;SDS011;4016;50.758;7.150;2024-03-02T10:58:33;3.90;;;2.70;;
7941;SDS011;4016;50.758;7.150;2024-03-02T11:03:35;3.60;;;2.60;;
7941;SDS011;4016;50.758;7.150;2024-03-02T11:08:39;2.67;;;2.47;;
7941;SDS011;4016;50.758;7.150;2024-03-02T11:13:42;3.37;;;3.00;;
7941;SDS011;4016;50.758;7.150;2024-03-02T11:18:49;3.73;;;2.80;;
7941;SDS011;4016;50.758;7.150;2024-03-02T11:23:50;2.87;;;2.67;;
7941;SDS011;4016;50.758;7.150;2024-03-02T11:28:50;2.47;;;2.27;;
7941;SDS011;4016;50.758;7.150;2024-03-02T11:33:51;2.87;;;2.13;;
7941;SDS011;4016;50.758;7.150;2024-03-02T11:38:52;3.30;;;2.43;;
7941;SDS011;4016;50.758;7.150;2024-03-02T11:43:53;2.70;;;2.40;;
7941;SDS011;4016;50.758;7.150;2024-03-02T11:48:54;2.70;;;1.90;;
7941;SDS011;4016;50.758;7.150;2024-03-02T11:53:54;1.73;;;1.63;;
7941;SDS011;4016;50.758;7.150;2024-03-02T11:58:56;1.93;;;1.83;;
7941;SDS011;4016;50.758;7.150;2024-03-02T12:03:58;2.57;;;1.87;;
7941;SDS011;4016;50.758;7.150;2024-03-02T12:08:58;2.07;;;1.87;;
7941;SDS011;4016;50.758;7.150;2024-03-02T12:13:59;2.20;;;2.00;;
7941;SDS011;4016;50.758;7.150;2024-03-02T12:18:59;2.03;;;1.87;;
7941;SDS011;4016;50.758;7.150;2024-03-02T12:23:59;2.27;;;2.17;;
7941;SDS011;4016;50.758;7.150;2024-03-02T12:29:01;2.00;;;1.90;;
7941;SDS011;4016;50.758;7.150;2024-03-02T12:34:02;2.43;;;2.23;;
7941;SDS011;4016;50.758;7.150;2024-03-02T12:39:04;1.90;;;1.80;;
7941;SDS011;4016;50.758;7.150;2024-03-02T12:44:04;1.90;;;1.80;;
7941;SDS011;4016;50.758;7.150;2024-03-02T12:49:08;2.00;;;1.90;;
7941;SDS011;4016;50.758;7.150;2024-03-02T12:54:10;2.07;;;1.90;;
7941;SDS011;4016;50.758;7.150;2024-03-02T12:59:21;1.83;;;1.70;;
7941;SDS011;4016;50.758;7.150;2024-03-02T13:09:24;1.95;;;1.83;;
7941;SDS011;4016;50.758;7.150;2024-03-02T13:14:25;2.08;;;1.90;;
7941;SDS011;4016;50.758;7.150;2024-03-02T13:19:26;1.85;;;1.75;;
7941;SDS011;4016;50.758;7.150;2024-03-02T13:24:30;1.75;;;1.65;;
7941;SDS011;4016;50.758;7.150;2024-03-02T13:29:31;1.58;;;1.48;;
7941;SDS011;4016;50.758;7.150;2024-03-02T13:34:31;1.75;;;1.65;;
7941;SDS011;4016;50.758;7.150;2024-03-02T13:39:32;2.67;;;2.42;;
7941;SDS011;4016;50.758;7.150;2024-03-02T13:44:32;1.83;;;1.73;;
7941;SDS011;4016;50.758;7.150;2024-03-02T13:49:33;2.50;;;2.30;;
7941;SDS011;4016;50.758;7.150;2024-03-02T13:54:36;2.20;;;2.00;;
7941;SDS011;4016;50.758;7.150;2024-03-02T13:59:37;3.38;;;2.33;;
7941;SDS011;4016;50.758;7.150;2024-03-02T14:04:38;2.70;;;2.50;;
7941;SDS011;4016;50.758;7.150;2024-03-02T14:09:39;2.33;;;2.15;;
7941;SDS011;4016;50.758;7.150;2024-03-02T14:14:39;3.38;;;2.03;;
7941;SDS011;4016;50.758;7.150;2024-03-02T14:19:40;2.35;;;2.15;;
7941;SDS011;4016;50.758;7.150;2024-03-02T14:24:40;4.45;;;2.38;;
7941;SDS011;4016;50.758;7.150;2024-03-02T14:29:44;2.60;;;2.28;;
7941;SDS011;4016;50.758;7.150;2024-03-02T14:34:45;2.13;;;2.03;;
7941;SDS011;4016;50.758;7.150;2024-03-02T14:39:46;2.20;;;1.92;;
7941;SDS011;4016;50.758;7.150;2024-03-02T14:44:47;2.53;;;2.33;;
7941;SDS011;4016;50.758;7.150;2024-03-02T14:49:47;2.20;;;2.00;;
7941;SDS011;4016;50.758;7.150;2024-03-02T14:54:48;1.87;;;1.67;;
7941;SDS011;4016;50.758;7.150;2024-03-02T14:59:48;2.40;;;2.20;;
7941;SDS011;4016;50.758;7.150;2024-03-02T15:04:48;2.03;;;1.80;;
7941;SDS011;4016;50.758;7.150;2024-03-02T15:09:49;3.17;;;1.97;;
7941;SDS011;4016;50.758;7.150;2024-03-02T15:14:50;3.90;;;2.20;;
7941;SDS011;4016;50.758;7.150;2024-03-02T15:19:50;2.20;;;2.00;;
7941;SDS011;4016;50.758;7.150;2024-03-02T15:24:51;2.27;;;2.07;;
7941;SDS011;4016;50.758;7.150;2024-03-02T15:29:51;1.83;;;1.73;;
7941;SDS011;4016;50.758;7.150;2024-03-02T15:34:55;1.83;;;1.73;;
7941;SDS011;4016;50.758;7.150;2024-03-02T15:39:55;1.90;;;1.80;;
7941;SDS011;4016;50.758;7.150;2024-03-02T15:44:56;1.80;;;1.70;;
7941;SDS011;4016;50.758;7.150;2024-03-02T15:49:56;1.87;;;1.77;;
7941;SDS011;4016;50.758;7.150;2024-03-02T15:54:56;2.53;;;2.23;;
7941;SDS011;4016;50.758;7.150;2024-03-02T15:59:57;2.47;;;1.87;;
7941;SDS011;4016;50.758;7.150;2024-03-02T16:04:57;2.10;;;1.97;;
7941;SDS011;4016;50.758;7.150;2024-03-02T16:09:57;1.73;;;1.63;;
7941;SDS011;4016;50.758;7.150;2024-03-02T16:14:58;1.80;;;1.70;;
7941;SDS011;4016;50.758;7.150;2024-03-02T16:19:58;2.47;;;2.27;;
7941;SDS011;4016;50.758;7.150;2024-03-02T16:24:58;2.00;;;1.90;;
7941;SDS011;4016;50.758;7.150;2024-03-02T16:29:59;1.93;;;1.83;;
7941;SDS011;4016;50.758;7.150;2024-03-02T16:34:59;2.00;;;1.90;;
7941;SDS011;4016;50.758;7.150;2024-03-02T16:40:00;2.30;;;2.10;;
7941;SDS011;4016;50.758;7.150;2024-03-02T16:45:00;1.87;;;1.77;;
7941;SDS011;4016;50.758;7.150;2024-03-02T16:50:01;2.33;;;2.13;;
7941;SDS011;4016;50.758;7.150;2024-03-02T16:55:02;1.87;;;1.77;;
7941;SDS011;4016;50.758;7.150;2024-03-02T17:00:03;1.90;;;1.80;;
7941;SDS011;4016;50.758;7.150;2024-03-02T17:05:04;3.03;;;2.27;;
7941;SDS011;4016;50.758;7.150;2024-03-02T17:10:05;2.13;;;1.93;;
7941;SDS011;4016;50.758;7.150;2024-03-02T17:15:06;2.43;;;2.23;;
7941;SDS011;4016;50.758;7.150;2024-03-02T17:20:07;2.10;;;2.00;;
7941;SDS011;4016;50.758;7.150;2024-03-02T17:25:09;1.90;;;1.80;;
7941;SDS011;4016;50.758;7.150;2024-03-02T17:30:09;5.60;;;2.33;;
7941;SDS011;4016;50.758;7.150;2024-03-02T17:35:10;3.47;;;2.33;;
7941;SDS011;4016;50.758;7.150;2024-03-02T17:40:11;4.53;;;2.43;;
7941;SDS011;4016;50.758;7.150;2024-03-02T17:45:11;2.40;;;2.20;;
7941;SDS011;4016;50.758;7.150;2024-03-02T17:50:12;3.13;;;2.10;;
7941;SDS011;4016;50.758;7.150;2024-03-02T17:55:13;3.97;;;3.53;;
7941;SDS011;4016;50.758;7.150;2024-03-02T18:00:14;4.37;;;3.50;;
7941;SDS011;4016;50.758;7.150;2024-03-02T18:05:15;3.10;;;2.67;;
7941;SDS011;4016;50.758;7.150;2024-03-02T18:10:16;2.87;;;2.67;;
7941;SDS011;4016;50.758;7.150;2024-03-02T18:15:16;2.73;;;2.53;;
7941;SDS011;4016;50.758;7.150;2024-03-02T18:20:17;2.33;;;2.10;;
7941;SDS011;4016;50.758;7.150;2024-03-02T18:25:17;2.53;;;2.33;;
7941;SDS011;4016;50.758;7.150;2024-03-02T18:30:17;2.90;;;2.70;;
7941;SDS011;4016;50.758;7.150;2024-03-02T18:35:18;3.23;;;2.93;;
7941;SDS011;4016;50.758;7.150;2024-03-02T18:40:18;3.70;;;3.00;;
7941;SDS011;4016;50.758;7.150;2024-03-02T18:45:19;3.10;;;2.90;;
7941;SDS011;4016;50.758;7.150;2024-03-02T18:50:19;5.63;;;3.53;;
7941;SDS011;4016;50.758;7.150;2024-03-02T18:55:20;3.87;;;2.93;;
7941;SDS011;4016;50.758;7.150;2024-03-02T19:00:20;5.03;;;3.53;;
7941;SDS011;4016;50.758;7.150;2024-03-02T19:05:20;4.40;;;4.00;;
7941;SDS011;4016;50.758;7.150;2024-03-02T19:10:21;6.20;;;3.80;;
7941;SDS011;4016;50.758;7.150;2024-03-02T19:15:21;4.23;;;3.83;;
7941;SDS011;4016;50.758;7.150;2024-03-02T19:20:22;4.10;;;3.63;;
7941;SDS011;4016;50.758;7.150;2024-03-02T19:25:23;3.97;;;3.57;;
7941;SDS011;4016;50.758;7.150;2024-03-02T19:30:23;4.23;;;3.80;;
7941;SDS011;4016;50.758;7.150;2024-03-02T19:35:25;3.90;;;3.50;;
7941;SDS011;4016;50.758;7.150;2024-03-02T19:40:26;3.77;;;3.40;;
7941;SDS011;4016;50.758;7.150;2024-03-02T19:45:26;4.63;;;4.10;;
7941;SDS011;4016;50.758;7.150;2024-03-02T19:50:27;3.97;;;3.60;;
7941;SDS011;4016;50.758;7.150;2024-03-02T19:55:27;3.70;;;3.40;;
7941;SDS011;4016;50.758;7.150;2024-03-02T20:00:30;4.20;;;3.60;;
7941;SDS011;4016;50.758;7.150;2024-03-02T20:05:31;4.17;;;3.77;;
7941;SDS011;4016;50.758;7.150;2024-03-02T20:10:31;4.43;;;3.40;;
7941;SDS011;4016;50.758;7.150;2024-03-02T20:15:31;4.13;;;3.73;;
7941;SDS011;4016;50.758;7.150;2024-03-02T20:20:32;4.60;;;4.13;;
7941;SDS011;4016;50.758;7.150;2024-03-02T20:25:32;4.10;;;3.43;;
7941;SDS011;4016;50.758;7.150;2024-03-02T20:30:32;3.73;;;3.33;;
7941;SDS011;4016;50.758;7.150;2024-03-02T20:35:33;3.63;;;3.20;;
7941;SDS011;4016;50.758;7.150;2024-03-02T20:40:33;5.03;;;3.23;;
7941;SDS011;4016;50.758;7.150;2024-03-02T20:45:34;4.40;;;3.80;;
7941;SDS011;4016;50.758;7.150;2024-03-02T20:50:35;4.30;;;3.90;;
7941;SDS011;4016;50.758;7.150;2024-03-02T20:55:36;4.87;;;4.00;;
7941;SDS011;4016;50.758;7.150;2024-03-02T21:00:37;4.30;;;3.77;;
7941;SDS011;4016;50.758;7.150;2024-03-02T21:05:38;4.23;;;3.83;;
7941;SDS011;4016;50.758;7.150;2024-03-02T21:10:38;4.20;;;3.80;;
7941;SDS011;4016;50.758;7.150;2024-03-02T21:15:38;5.20;;;3.83;;
7941;SDS011;4016;50.758;7.150;2024-03-02T21:20:39;4.17;;;3.77;;
7941;SDS011;4016;50.758;7.150;2024-03-02T21:25:39;4.70;;;3.97;;
7941;SDS011;4016;50.758;7.150;2024-03-02T21:30:39;4.63;;;4.13;;
7941;SDS011;4016;50.758;7.150;2024-03-02T21:35:40;5.70;;;4.30;;
7941;SDS011;4016;50.758;7.150;2024-03-02T21:40:40;4.53;;;3.93;;
7941;SDS011;4016;50.758;7.150;2024-03-02T21:45:41;5.10;;;4.47;;
7941;SDS011;4016;50.758;7.150;2024-03-02T21:50:41;4.50;;;4.10;;
7941;SDS011;4016;50.758;7.150;2024-03-02T21:55:41;5.73;;;4.17;;
7941;SDS011;4016;50.758;7.150;2024-03-02T22:00:43;4.43;;;4.00;;
7941;SDS011;4016;50.758;7.150;2024-03-02T22:05:43;4.63;;;4.13;;
7941;SDS011;4016;50.758;7.150;2024-03-02T22:10:43;6.57;;;4.20;;
7941;SDS011;4016;50.758;7.150;2024-03-02T22:15:44;5.00;;;4.50;;
7941;SDS011;4016;50.758;7.150;2024-03-02T22:20:44;5.10;;;4.50;;
7941;SDS011;4016;50.758;7.150;2024-03-02T22:25:44;5.40;;;4.20;;
7941;SDS011;4016;50.758;7.150;2024-03-02T22:30:45;4.67;;;4.20;;
7941;SDS011;4016;50.758;7.150;2024-03-02T22:35:45;5.60;;;4.63;;
7941;SDS011;4016;50.758;7.150;2024-03-02T22:40:46;6.67;;;5.00;;
7941;SDS011;4016;50.758;7.150;2024-03-02T22:45:46;6.73;;;4.87;;
7941;SDS011;4016;50.758;7.150;2024-03-02T22:50:47;6.83;;;5.00;;
7941;SDS011;4016;50.758;7.150;2024-03-02T22:55:47;5.27;;;4.73;;
7941;SDS011;4016;50.758;7.150;2024-03-02T23:00:48;5.30;;;4.80;;
7941;SDS011;4016;50.758;7.150;2024-03-02T23:05:48;5.93;;;5.33;;
7941;SDS011;4016;50.758;7.150;2024-03-02T23:10:49;7.53;;;5.40;;
7941;SDS011;4016;50.758;7.150;2024-03-02T23:15:49;7.10;;;5.43;;
7941;SDS011;4016;50.758;7.150;2024-03-02T23:20:51;8.83;;;5.90;;
7941;SDS011;4016;50.758;7.150;2024-03-02T23:25:51;7.53;;;5.87;;
7941;SDS011;4016;50.758;7.150;2024-03-02T23:30:52;6.40;;;5.67;;
7941;SDS011;4016;50.758;7.150;2024-03-02T23:35:52;6.97;;;5.63;;
7941;SDS011;4016;50.758;7.150;2024-03-02T23:40:53;7.37;;;5.70;;
7941;SDS011;4016;50.758;7.150;2024-03-02T23:46:07;7.90;;;5.97;;
7941;SDS011;4016;50.758;7.150;2024-03-02T23:51:08;7.83;;;6.23;;
7941;SDS011;4016;50.758;7.150;2024-03-02T23:56:12;8.00;;;6.17;;
